sensor_id;sensor_type;location;lat;lon;timestamp;pressure;altitude;pressure_sealevel;temperature;humidity
60465;BME280;46314;52.392;9.758;2024-03-02T00:01:19;99661.41;;;11.48;71.97
60465;BME280;46314;52.392;9.758;2024-03-02T00:03:46;99670.38;;;10.98;73.75
60465;BME280;46314;52.392;9.758;2024-03-02T00:06:13;99656.66;;;11.02;73.74
60465;BME280;46314;52.392;9.758;2024-03-02T00:08:39;99655.78;;;11.18;72.98
60465;BME280;46314;52.392;9.758;2024-03-02T00:11:07;99654.00;;;11.23;72.74
60465;BME280;46314;52.392;9.758;2024-03-02T00:13:34;99664.91;;;11.36;72.30
60465;BME280;46314;52.392;9.758;2024-03-02T00:16:00;99660.09;;;10.72;74.42
60465;BME280;46314;52.392;9.758;2024-03-02T00:18:30;99666.97;;;10.75;74.60
60465;BME280;46314;52.392;9.758;2024-03-02T00:20:57;99656.84;;;10.79;74.50
60465;BME280;46314;52.392;9.758;2024-03-02T00:23:27;99660.09;;;10.90;74.48
60465;BME280;46314;52.392;9.758;2024-03-02T00:25:55;99673.47;;;11.05;73.57
60465;BME280;46314;52.392;9.758;2024-03-02T00:28:24;99663.19;;;10.62;75.97
60465;BME280;46314;52.392;9.758;2024-03-02T00:30:55;99662.88;;;10.81;75.51
60465;BME280;46314;52.392;9.758;2024-03-02T00:33:22;99665.31;;;10.74;75.00
60465;BME280;46314;52.392;9.758;2024-03-02T00:35:49;99668.19;;;11.21;72.90
60465;BME280;46314;52.392;9.758;2024-03-02T00:38:16;99670.84;;;11.00;74.01
60465;BME280;46314;52.392;9.758;2024-03-02T00:40:43;99671.91;;;11.34;73.06
60465;BME280;46314;52.392;9.758;2024-03-02T00:43:27;99666.75;;;11.06;73.77
60465;BME280;46314;52.392;9.758;2024-03-02T00:46:03;99666.88;;;11.27;72.70
60465;BME280;46314;52.392;9.758;2024-03-02T00:48:30;99662.88;;;10.81;74.46
60465;BME280;46314;52.392;9.758;2024-03-02T00:50:57;99665.88;;;11.32;72.91
60465;BME280;46314;52.392;9.758;2024-03-02T00:53:26;99674.28;;;10.97;74.02
60465;BME280;46314;52.392;9.758;2024-03-02T00:55:52;99665.94;;;11.06;74.66
60465;BME280;46314;52.392;9.758;2024-03-02T00:58:19;99670.56;;;10.58;76.11
60465;BME280;46314;52.392;9.758;2024-03-02T01:00:46;99670.06;;;10.91;75.63
60465;BME280;46314;52.392;9.758;2024-03-02T01:03:13;99673.00;;;10.77;76.19
60465;BME280;46314;52.392;9.758;2024-03-02T01:05:41;99672.66;;;10.96;75.09
60465;BME280;46314;52.392;9.758;2024-03-02T01:08:07;99660.38;;;11.06;75.28
60465;BME280;46314;52.392;9.758;2024-03-02T01:10:34;99676.88;;;11.02;75.34
60465;BME280;46314;52.392;9.758;2024-03-02T01:13:00;99668.47;;;11.37;73.85
60465;BME280;46314;52.392;9.758;2024-03-02T01:15:27;99670.50;;;11.19;74.12
60465;BME280;46314;52.392;9.758;2024-03-02T01:17:55;99674.63;;;10.78;75.52
60465;BME280;46314;52.392;9.758;2024-03-02T01:20:21;99674.75;;;11.08;74.78
60465;BME280;46314;52.392;9.758;2024-03-02T01:22:48;99686.69;;;10.91;75.39
60465;BME280;46314;52.392;9.758;2024-03-02T01:25:14;99676.53;;;11.21;74.16
60465;BME280;46314;52.392;9.758;2024-03-02T01:27:40;99676.00;;;11.36;72.74
60465;BME280;46314;52.392;9.758;2024-03-02T01:30:08;99665.06;;;11.31;73.70
60465;BME280;46314;52.392;9.758;2024-03-02T01:32:34;99677.50;;;11.25;74.04
60465;BME280;46314;52.392;9.758;2024-03-02T01:35:03;99673.03;;;11.50;72.87
60465;BME280;46314;52.392;9.758;2024-03-02T01:37:29;99671.66;;;11.09;74.60
60465;BME280;46314;52.392;9.758;2024-03-02T01:39:56;99667.91;;;11.14;74.32
60465;BME280;46314;52.392;9.758;2024-03-02T01:42:22;99662.00;;;11.24;73.51
60465;BME280;46314;52.392;9.758;2024-03-02T01:44:49;99662.84;;;11.07;75.33
60465;BME280;46314;52.392;9.758;2024-03-02T01:47:15;99668.16;;;11.39;73.45
60465;BME280;46314;52.392;9.758;2024-03-02T01:49:42;99654.53;;;11.54;72.40
60465;BME280;46314;52.392;9.758;2024-03-02T01:52:09;99662.84;;;10.98;75.14
60465;BME280;46314;52.392;9.758;2024-03-02T01:54:36;99657.44;;;11.20;74.83
60465;BME280;46314;52.392;9.758;2024-03-02T01:57:02;99650.28;;;11.01;75.12
60465;BME280;46314;52.392;9.758;2024-03-02T01:59:29;99648.34;;;10.32;79.20
60465;BME280;46314;52.392;9.758;2024-03-02T02:01:55;99643.31;;;10.77;77.33
60465;BME280;46314;52.392;9.758;2024-03-02T02:04:22;99644.06;;;11.04;75.13
60465;BME280;46314;52.392;9.758;2024-03-02T02:06:48;99635.31;;;10.76;76.42
60465;BME280;46314;52.392;9.758;2024-03-02T02:09:16;99639.16;;;11.10;74.92
60465;BME280;46314;52.392;9.758;2024-03-02T02:11:43;99639.25;;;10.66;76.92
60465;BME280;46314;52.392;9.758;2024-03-02T02:14:09;99632.31;;;11.07;74.97
60465;BME280;46314;52.392;9.758;2024-03-02T02:16:35;99633.13;;;10.99;75.83
60465;BME280;46314;52.392;9.758;2024-03-02T02:19:02;99634.81;;;10.74;77.38
60465;BME280;46314;52.392;9.758;2024-03-02T02:21:30;99620.44;;;10.89;75.40
60465;BME280;46314;52.392;9.758;2024-03-02T02:23:56;99625.47;;;11.13;75.84
60465;BME280;46314;52.392;9.758;2024-03-02T02:26:22;99627.66;;;11.29;74.48
60465;BME280;46314;52.392;9.758;2024-03-02T02:28:49;99621.47;;;11.32;74.21
60465;BME280;46314;52.392;9.758;2024-03-02T02:31:15;99629.06;;;11.52;73.03
60465;BME280;46314;52.392;9.758;2024-03-02T02:33:42;99620.00;;;10.61;76.52
60465;BME280;46314;52.392;9.758;2024-03-02T02:36:09;99628.78;;;10.46;77.77
60465;BME280;46314;52.392;9.758;2024-03-02T02:38:40;99628.91;;;10.93;75.95
60465;BME280;46314;52.392;9.758;2024-03-02T02:41:07;99620.41;;;11.07;75.12
60465;BME280;46314;52.392;9.758;2024-03-02T02:43:33;99626.34;;;10.70;76.75
60465;BME280;46314;52.392;9.758;2024-03-02T02:46:00;99620.63;;;10.75;76.03
60465;BME280;46314;52.392;9.758;2024-03-02T02:48:26;99623.41;;;10.67;77.10
60465;BME280;46314;52.392;9.758;2024-03-02T02:50:53;99621.94;;;10.69;77.14
60465;BME280;46314;52.392;9.758;2024-03-02T02:53:19;99613.44;;;10.66;76.69
60465;BME280;46314;52.392;9.758;2024-03-02T02:55:47;99611.19;;;10.50;77.43
60465;BME280;46314;52.392;9.758;2024-03-02T02:58:14;99609.84;;;10.30;78.91
60465;BME280;46314;52.392;9.758;2024-03-02T03:00:40;99613.13;;;10.32;78.35
60465;BME280;46314;52.392;9.758;2024-03-02T03:03:07;99615.38;;;10.30;78.85
60465;BME280;46314;52.392;9.758;2024-03-02T03:05:33;99611.50;;;10.57;77.34
60465;BME280;46314;52.392;9.758;2024-03-02T03:07:59;99602.56;;;10.34;78.79
60465;BME280;46314;52.392;9.758;2024-03-02T03:10:26;99602.34;;;10.74;76.15
60465;BME280;46314;52.392;9.758;2024-03-02T03:12:54;99596.78;;;10.74;75.72
60465;BME280;46314;52.392;9.758;2024-03-02T03:15:21;99610.34;;;10.50;78.24
60465;BME280;46314;52.392;9.758;2024-03-02T03:17:48;99605.69;;;11.06;74.67
60465;BME280;46314;52.392;9.758;2024-03-02T03:20:15;99605.63;;;10.68;76.05
60465;BME280;46314;52.392;9.758;2024-03-02T03:22:41;99600.28;;;10.36;77.26
60465;BME280;46314;52.392;9.758;2024-03-02T03:25:08;99600.72;;;10.21;78.22
60465;BME280;46314;52.392;9.758;2024-03-02T03:27:35;99592.22;;;10.09;77.91
60465;BME280;46314;52.392;9.758;2024-03-02T03:30:03;99598.56;;;10.00;79.04
60465;BME280;46314;52.392;9.758;2024-03-02T03:32:30;99596.25;;;9.68;79.46
60465;BME280;46314;52.392;9.758;2024-03-02T03:34:56;99594.69;;;10.19;76.93
60465;BME280;46314;52.392;9.758;2024-03-02T03:37:22;99594.84;;;10.22;77.32
60465;BME280;46314;52.392;9.758;2024-03-02T03:39:49;99591.06;;;9.83;78.56
60465;BME280;46314;52.392;9.758;2024-03-02T03:42:15;99587.78;;;9.90;79.00
60465;BME280;46314;52.392;9.758;2024-03-02T03:44:42;99594.66;;;9.93;78.98
60465;BME280;46314;52.392;9.758;2024-03-02T03:47:09;99591.09;;;9.92;78.31
60465;BME280;46314;52.392;9.758;2024-03-02T03:49:36;99592.81;;;9.79;79.53
60465;BME280;46314;52.392;9.758;2024-03-02T03:52:03;99591.09;;;9.92;78.90
60465;BME280;46314;52.392;9.758;2024-03-02T03:54:29;99590.09;;;10.05;78.08
60465;BME280;46314;52.392;9.758;2024-03-02T03:56:56;99592.47;;;9.63;79.75
60465;BME280;46314;52.392;9.758;2024-03-02T03:59:22;99591.41;;;9.99;77.86
60465;BME280;46314;52.392;9.758;2024-03-02T04:01:49;99597.75;;;9.91;78.05
60465;BME280;46314;52.392;9.758;2024-03-02T04:04:17;99595.09;;;9.77;79.37
60465;BME280;46314;52.392;9.758;2024-03-02T04:06:43;99588.31;;;9.35;81.62
60465;BME280;46314;52.392;9.758;2024-03-02T04:09:10;99598.88;;;9.99;78.74
60465;BME280;46314;52.392;9.758;2024-03-02T04:11:36;99599.66;;;9.64;79.65
60465;BME280;46314;52.392;9.758;2024-03-02T04:14:02;99598.59;;;10.09;78.11
60465;BME280;46314;52.392;9.758;2024-03-02T04:16:29;99591.66;;;9.63;79.26
60465;BME280;46314;52.392;9.758;2024-03-02T04:18:55;99587.81;;;10.25;76.85
60465;BME280;46314;52.392;9.758;2024-03-02T04:21:23;99595.34;;;10.16;77.87
60465;BME280;46314;52.392;9.758;2024-03-02T04:23:50;99588.97;;;10.15;76.96
60465;BME280;46314;52.392;9.758;2024-03-02T04:26:16;99588.50;;;10.04;77.45
60465;BME280;46314;52.392;9.758;2024-03-02T04:28:42;99591.06;;;9.83;78.47
60465;BME280;46314;52.392;9.758;2024-03-02T04:31:09;99586.81;;;9.86;78.27
60465;BME280;46314;52.392;9.758;2024-03-02T04:33:35;99590.06;;;9.88;77.88
60465;BME280;46314;52.392;9.758;2024-03-02T04:36:02;99589.44;;;9.91;78.46
60465;BME280;46314;52.392;9.758;2024-03-02T04:38:30;99589.16;;;10.19;76.74
60465;BME280;46314;52.392;9.758;2024-03-02T04:40:56;99587.63;;;9.86;77.56
60465;BME280;46314;52.392;9.758;2024-03-02T04:43:23;99602.38;;;10.31;76.72
60465;BME280;46314;52.392;9.758;2024-03-02T04:45:49;99596.75;;;9.78;78.02
60465;BME280;46314;52.392;9.758;2024-03-02T04:48:15;99601.25;;;9.65;78.99
60465;BME280;46314;52.392;9.758;2024-03-02T04:50:42;99611.97;;;10.16;77.04
60465;BME280;46314;52.392;9.758;2024-03-02T04:53:08;99613.59;;;10.17;76.85
60465;BME280;46314;52.392;9.758;2024-03-02T04:55:36;99604.25;;;9.95;77.42
60465;BME280;46314;52.392;9.758;2024-03-02T04:58:03;99604.53;;;9.59;79.69
60465;BME280;46314;52.392;9.758;2024-03-02T05:00:29;99601.66;;;9.33;81.60
60465;BME280;46314;52.392;9.758;2024-03-02T05:02:56;99605.63;;;9.49;80.69
60465;BME280;46314;52.392;9.758;2024-03-02T05:05:22;99611.75;;;9.37;80.87
60465;BME280;46314;52.392;9.758;2024-03-02T05:07:49;99604.53;;;9.59;80.29
60465;BME280;46314;52.392;9.758;2024-03-02T05:10:15;99606.59;;;9.53;80.96
60465;BME280;46314;52.392;9.758;2024-03-02T05:12:43;99604.97;;;9.52;81.42
60465;BME280;46314;52.392;9.758;2024-03-02T05:15:11;99602.75;;;9.23;82.27
60465;BME280;46314;52.392;9.758;2024-03-02T05:17:38;99613.16;;;8.95;84.01
60465;BME280;46314;52.392;9.758;2024-03-02T05:20:06;99609.06;;;9.15;83.71
60465;BME280;46314;52.392;9.758;2024-03-02T05:22:33;99611.88;;;8.92;84.78
60465;BME280;46314;52.392;9.758;2024-03-02T05:24:59;99609.81;;;8.52;86.78
60465;BME280;46314;52.392;9.758;2024-03-02T05:27:26;99597.25;;;8.69;86.81
60465;BME280;46314;52.392;9.758;2024-03-02T05:29:54;99601.75;;;9.19;84.35
60465;BME280;46314;52.392;9.758;2024-03-02T05:32:20;99605.91;;;9.39;83.01
60465;BME280;46314;52.392;9.758;2024-03-02T05:34:47;99607.31;;;9.68;81.13
60465;BME280;46314;52.392;9.758;2024-03-02T05:37:13;99607.81;;;9.70;80.84
60465;BME280;46314;52.392;9.758;2024-03-02T05:39:40;99598.56;;;9.34;82.78
60465;BME280;46314;52.392;9.758;2024-03-02T05:42:06;99604.63;;;9.45;83.49
60465;BME280;46314;52.392;9.758;2024-03-02T05:44:33;99608.78;;;9.74;80.87
60465;BME280;46314;52.392;9.758;2024-03-02T05:47:00;99615.03;;;9.97;79.70
60465;BME280;46314;52.392;9.758;2024-03-02T05:49:27;99621.03;;;9.90;79.31
60465;BME280;46314;52.392;9.758;2024-03-02T05:51:54;99627.53;;;9.77;80.54
60465;BME280;46314;52.392;9.758;2024-03-02T05:54:20;99620.31;;;9.67;80.93
60465;BME280;46314;52.392;9.758;2024-03-02T05:56:47;99615.72;;;9.45;82.47
60465;BME280;46314;52.392;9.758;2024-03-02T05:59:13;99624.84;;;9.14;84.70
60465;BME280;46314;52.392;9.758;2024-03-02T06:01:40;99628.19;;;9.34;82.52
60465;BME280;46314;52.392;9.758;2024-03-02T06:04:08;99620.97;;;9.55;82.06
60465;BME280;46314;52.392;9.758;2024-03-02T06:06:34;99629.16;;;9.78;80.80
60465;BME280;46314;52.392;9.758;2024-03-02T06:09:01;99621.38;;;9.40;82.40
60465;BME280;46314;52.392;9.758;2024-03-02T06:11:27;99629.81;;;9.35;83.70
60465;BME280;46314;52.392;9.758;2024-03-02T06:13:54;99627.88;;;9.84;80.82
60465;BME280;46314;52.392;9.758;2024-03-02T06:16:20;99619.13;;;9.51;82.23
60465;BME280;46314;52.392;9.758;2024-03-02T06:18:47;99630.16;;;9.82;80.39
60465;BME280;46314;52.392;9.758;2024-03-02T06:21:15;99632.59;;;9.75;80.32
60465;BME280;46314;52.392;9.758;2024-03-02T06:23:41;99631.38;;;9.58;81.43
60465;BME280;46314;52.392;9.758;2024-03-02T06:26:07;99641.25;;;9.42;83.28
60465;BME280;46314;52.392;9.758;2024-03-02T06:28:34;99640.66;;;9.54;82.22
60465;BME280;46314;52.392;9.758;2024-03-02T06:31:02;99640.41;;;9.73;81.53
60465;BME280;46314;52.392;9.758;2024-03-02T06:33:29;99648.13;;;9.53;82.81
60465;BME280;46314;52.392;9.758;2024-03-02T06:35:55;99648.72;;;9.73;81.82
60465;BME280;46314;52.392;9.758;2024-03-02T06:38:23;99653.47;;;9.90;79.89
60465;BME280;46314;52.392;9.758;2024-03-02T06:40:49;99654.25;;;9.73;81.08
60465;BME280;46314;52.392;9.758;2024-03-02T06:43:16;99654.41;;;9.76;81.14
60465;BME280;46314;52.392;9.758;2024-03-02T06:45:42;99649.97;;;9.66;80.89
60465;BME280;46314;52.392;9.758;2024-03-02T06:48:09;99653.00;;;9.96;79.67
60465;BME280;46314;52.392;9.758;2024-03-02T06:50:35;99655.78;;;10.05;78.96
60465;BME280;46314;52.392;9.758;2024-03-02T06:53:02;99658.25;;;10.15;79.10
60465;BME280;46314;52.392;9.758;2024-03-02T06:55:29;99658.13;;;9.72;80.71
60465;BME280;46314;52.392;9.758;2024-03-02T06:57:56;99654.63;;;9.89;80.21
60465;BME280;46314;52.392;9.758;2024-03-02T07:00:23;99661.03;;;10.24;78.48
60465;BME280;46314;52.392;9.758;2024-03-02T07:02:49;99666.72;;;10.10;79.42
60465;BME280;46314;52.392;9.758;2024-03-02T07:05:16;99659.28;;;10.37;78.38
60465;BME280;46314;52.392;9.758;2024-03-02T07:07:42;99652.47;;;10.52;76.91
60465;BME280;46314;52.392;9.758;2024-03-02T07:10:09;99651.47;;;10.48;77.20
60465;BME280;46314;52.392;9.758;2024-03-02T07:12:36;99656.59;;;10.05;79.67
60465;BME280;46314;52.392;9.758;2024-03-02T07:15:04;99657.78;;;10.22;78.90
60465;BME280;46314;52.392;9.758;2024-03-02T07:17:31;99667.84;;;10.09;79.49
60465;BME280;46314;52.392;9.758;2024-03-02T07:19:58;99676.25;;;10.53;78.21
60465;BME280;46314;52.392;9.758;2024-03-02T07:22:24;99679.59;;;10.06;80.65
60465;BME280;46314;52.392;9.758;2024-03-02T07:24:51;99669.91;;;10.78;76.26
60465;BME280;46314;52.392;9.758;2024-03-02T07:27:18;99674.28;;;10.62;77.18
60465;BME280;46314;52.392;9.758;2024-03-02T07:29:46;99676.25;;;10.61;77.66
60465;BME280;46314;52.392;9.758;2024-03-02T07:32:12;99678.56;;;10.68;77.00
60465;BME280;46314;52.392;9.758;2024-03-02T07:34:39;99681.63;;;10.93;75.49
60465;BME280;46314;52.392;9.758;2024-03-02T07:37:05;99676.25;;;10.88;76.21
60465;BME280;46314;52.392;9.758;2024-03-02T07:39:32;99681.44;;;11.15;74.53
60465;BME280;46314;52.392;9.758;2024-03-02T07:41:59;99692.53;;;11.24;74.37
60465;BME280;46314;52.392;9.758;2024-03-02T07:44:27;99695.03;;;10.82;76.29
60465;BME280;46314;52.392;9.758;2024-03-02T07:46:54;99701.22;;;10.96;74.94
60465;BME280;46314;52.392;9.758;2024-03-02T07:49:21;99701.63;;;11.42;73.76
60465;BME280;46314;52.392;9.758;2024-03-02T07:51:47;99701.38;;;10.65;76.76
60465;BME280;46314;52.392;9.758;2024-03-02T07:54:14;99710.19;;;11.02;75.20
60465;BME280;46314;52.392;9.758;2024-03-02T07:56:41;99704.47;;;10.55;77.71
60465;BME280;46314;52.392;9.758;2024-03-02T07:59:07;99706.59;;;11.10;76.12
60465;BME280;46314;52.392;9.758;2024-03-02T08:01:34;99705.13;;;10.87;76.39
60465;BME280;46314;52.392;9.758;2024-03-02T08:04:02;99698.25;;;10.40;78.72
60465;BME280;46314;52.392;9.758;2024-03-02T08:06:29;99700.88;;;11.15;75.21
60465;BME280;46314;52.392;9.758;2024-03-02T08:08:57;99709.34;;;11.19;74.45
60465;BME280;46314;52.392;9.758;2024-03-02T08:11:23;99703.25;;;11.43;73.49
60465;BME280;46314;52.392;9.758;2024-03-02T08:13:50;99709.22;;;10.80;77.09
60465;BME280;46314;52.392;9.758;2024-03-02T08:16:17;99714.09;;;10.40;79.67
60465;BME280;46314;52.392;9.758;2024-03-02T08:18:43;99706.06;;;11.34;75.90
60465;BME280;46314;52.392;9.758;2024-03-02T08:21:11;99712.06;;;11.54;74.25
60465;BME280;46314;52.392;9.758;2024-03-02T08:23:38;99707.91;;;10.87;76.70
60465;BME280;46314;52.392;9.758;2024-03-02T08:26:07;99703.84;;;10.84;77.07
60465;BME280;46314;52.392;9.758;2024-03-02T08:28:34;99716.25;;;11.69;73.52
60465;BME280;46314;52.392;9.758;2024-03-02T08:31:00;99710.06;;;11.63;72.25
60465;BME280;46314;52.392;9.758;2024-03-02T08:33:27;99708.38;;;10.97;75.66
60465;BME280;46314;52.392;9.758;2024-03-02T08:35:54;99713.25;;;11.18;75.21
60465;BME280;46314;52.392;9.758;2024-03-02T08:38:21;99716.78;;;11.45;73.86
60465;BME280;46314;52.392;9.758;2024-03-02T08:40:49;99721.09;;;11.16;74.89
60465;BME280;46314;52.392;9.758;2024-03-02T08:43:16;99699.66;;;11.90;72.01
60465;BME280;46314;52.392;9.758;2024-03-02T08:45:42;99714.44;;;11.64;73.45
60465;BME280;46314;52.392;9.758;2024-03-02T08:48:09;99716.84;;;11.10;75.38
60465;BME280;46314;52.392;9.758;2024-03-02T08:50:35;99720.94;;;11.30;74.95
60465;BME280;46314;52.392;9.758;2024-03-02T08:53:03;99715.25;;;11.09;75.02
60465;BME280;46314;52.392;9.758;2024-03-02T08:55:31;99728.06;;;11.48;73.28
60465;BME280;46314;52.392;9.758;2024-03-02T08:57:57;99713.22;;;11.44;74.15
60465;BME280;46314;52.392;9.758;2024-03-02T09:00:24;99726.47;;;11.86;70.46
60465;BME280;46314;52.392;9.758;2024-03-02T09:02:51;99705.00;;;12.34;68.01
60465;BME280;46314;52.392;9.758;2024-03-02T09:05:18;99720.88;;;11.56;72.38
60465;BME280;46314;52.392;9.758;2024-03-02T09:07:44;99717.41;;;12.06;69.11
60465;BME280;46314;52.392;9.758;2024-03-02T09:10:11;99708.16;;;12.23;68.95
60465;BME280;46314;52.392;9.758;2024-03-02T09:12:39;99716.22;;;12.46;69.30
60465;BME280;46314;52.392;9.758;2024-03-02T09:15:06;99718.59;;;12.56;68.00
60465;BME280;46314;52.392;9.758;2024-03-02T09:17:32;99718.50;;;12.23;67.91
60465;BME280;46314;52.392;9.758;2024-03-02T09:19:59;99716.53;;;11.76;69.40
60465;BME280;46314;52.392;9.758;2024-03-02T09:22:26;99712.09;;;11.92;69.60
60465;BME280;46314;52.392;9.758;2024-03-02T09:24:52;99707.69;;;11.91;69.02
60465;BME280;46314;52.392;9.758;2024-03-02T09:27:18;99713.28;;;11.74;70.00
60465;BME280;46314;52.392;9.758;2024-03-02T09:29:48;99718.19;;;11.77;69.64
60465;BME280;46314;52.392;9.758;2024-03-02T09:32:14;99719.66;;;12.13;68.69
60465;BME280;46314;52.392;9.758;2024-03-02T09:34:41;99728.00;;;12.13;67.35
60465;BME280;46314;52.392;9.758;2024-03-02T09:37:07;99720.94;;;12.24;68.01
60465;BME280;46314;52.392;9.758;2024-03-02T09:39:33;99732.28;;;12.40;67.27
60465;BME280;46314;52.392;9.758;2024-03-02T09:42:00;99728.03;;;12.85;65.30
60465;BME280;46314;52.392;9.758;2024-03-02T09:44:27;99732.41;;;13.28;63.95
60465;BME280;46314;52.392;9.758;2024-03-02T09:46:54;99726.75;;;13.03;63.43
60465;BME280;46314;52.392;9.758;2024-03-02T09:49:21;99728.56;;;12.99;64.29
60465;BME280;46314;52.392;9.758;2024-03-02T09:51:48;99733.50;;;13.15;63.48
60465;BME280;46314;52.392;9.758;2024-03-02T09:54:16;99726.44;;;13.51;62.09
60465;BME280;46314;52.392;9.758;2024-03-02T09:56:49;99731.09;;;12.71;64.74
60465;BME280;46314;52.392;9.758;2024-03-02T09:59:15;99743.03;;;12.50;66.15
60465;BME280;46314;52.392;9.758;2024-03-02T10:01:56;99734.22;;;12.40;66.73
60465;BME280;46314;52.392;9.758;2024-03-02T10:04:23;99745.31;;;12.69;65.56
60465;BME280;46314;52.392;9.758;2024-03-02T10:06:51;99748.19;;;12.82;64.20
60465;BME280;46314;52.392;9.758;2024-03-02T10:09:26;99744.19;;;13.13;63.77
60465;BME280;46314;52.392;9.758;2024-03-02T10:11:53;99742.47;;;13.20;63.60
60465;BME280;46314;52.392;9.758;2024-03-02T10:14:20;99748.59;;;12.93;64.46
60465;BME280;46314;52.392;9.758;2024-03-02T10:16:46;99756.25;;;13.17;62.51
60465;BME280;46314;52.392;9.758;2024-03-02T10:19:18;99741.16;;;12.34;65.59
60465;BME280;46314;52.392;9.758;2024-03-02T10:21:45;99748.38;;;13.40;62.72
60465;BME280;46314;52.392;9.758;2024-03-02T10:24:11;99744.78;;;13.39;61.84
60465;BME280;46314;52.392;9.758;2024-03-02T10:26:38;99748.75;;;13.30;63.15
60465;BME280;46314;52.392;9.758;2024-03-02T10:29:04;99748.81;;;13.75;62.29
60465;BME280;46314;52.392;9.758;2024-03-02T10:31:31;99753.25;;;13.22;62.64
60465;BME280;46314;52.392;9.758;2024-03-02T10:33:59;99743.44;;;13.03;63.74
60465;BME280;46314;52.392;9.758;2024-03-02T10:36:27;99746.09;;;12.79;64.53
60465;BME280;46314;52.392;9.758;2024-03-02T10:38:55;99749.22;;;12.98;65.02
60465;BME280;46314;52.392;9.758;2024-03-02T10:41:23;99745.81;;;12.72;64.85
60465;BME280;46314;52.392;9.758;2024-03-02T10:43:51;99754.38;;;12.87;64.55
60465;BME280;46314;52.392;9.758;2024-03-02T10:46:19;99749.41;;;13.14;63.39
60465;BME280;46314;52.392;9.758;2024-03-02T10:48:46;99752.47;;;13.21;64.47
60465;BME280;46314;52.392;9.758;2024-03-02T10:51:12;99748.31;;;13.61;62.32
60465;BME280;46314;52.392;9.758;2024-03-02T10:53:40;99740.88;;;13.53;61.21
60465;BME280;46314;52.392;9.758;2024-03-02T10:56:09;99745.25;;;13.41;61.55
60465;BME280;46314;52.392;9.758;2024-03-02T10:58:37;99739.06;;;13.69;61.28
60465;BME280;46314;52.392;9.758;2024-03-02T11:01:05;99736.00;;;13.29;61.80
60465;BME280;46314;52.392;9.758;2024-03-02T11:03:35;99747.34;;;13.44;60.60
60465;BME280;46314;52.392;9.758;2024-03-02T11:06:03;99748.56;;;13.68;60.37
60465;BME280;46314;52.392;9.758;2024-03-02T11:08:33;99748.84;;;14.25;59.56
60465;BME280;46314;52.392;9.758;2024-03-02T11:11:06;99746.53;;;14.64;58.30
60465;BME280;46314;52.392;9.758;2024-03-02T11:13:34;99744.41;;;13.74;60.16
60465;BME280;46314;52.392;9.758;2024-03-02T11:16:09;99736.28;;;13.81;59.41
60465;BME280;46314;52.392;9.758;2024-03-02T11:18:39;99744.94;;;13.55;59.35
60465;BME280;46314;52.392;9.758;2024-03-02T11:21:06;99735.50;;;14.18;59.14
60465;BME280;46314;52.392;9.758;2024-03-02T11:23:34;99744.78;;;14.22;58.51
60465;BME280;46314;52.392;9.758;2024-03-02T11:26:21;99747.09;;;13.83;58.87
60465;BME280;46314;52.392;9.758;2024-03-02T11:28:47;99755.44;;;13.37;59.98
60465;BME280;46314;52.392;9.758;2024-03-02T11:31:14;99748.19;;;13.03;62.03
60465;BME280;46314;52.392;9.758;2024-03-02T11:33:41;99747.59;;;13.52;59.98
60465;BME280;46314;52.392;9.758;2024-03-02T11:36:08;99750.56;;;13.80;58.57
60465;BME280;46314;52.392;9.758;2024-03-02T11:38:37;99746.75;;;13.39;58.89
60465;BME280;46314;52.392;9.758;2024-03-02T11:41:06;99740.47;;;14.00;58.06
60465;BME280;46314;52.392;9.758;2024-03-02T11:43:37;99738.63;;;14.04;57.02
60465;BME280;46314;52.392;9.758;2024-03-02T11:46:04;99741.19;;;14.34;57.42
60465;BME280;46314;52.392;9.758;2024-03-02T11:48:31;99745.47;;;14.19;56.58
60465;BME280;46314;52.392;9.758;2024-03-02T11:50:58;99749.56;;;14.34;56.04
60465;BME280;46314;52.392;9.758;2024-03-02T11:53:27;99737.94;;;13.82;57.40
60465;BME280;46314;52.392;9.758;2024-03-02T11:55:56;99741.06;;;13.81;57.74
60465;BME280;46314;52.392;9.758;2024-03-02T11:58:22;99737.34;;;14.14;57.71
60465;BME280;46314;52.392;9.758;2024-03-02T12:00:52;99739.75;;;15.18;53.88
60465;BME280;46314;52.392;9.758;2024-03-02T12:03:21;99737.97;;;14.97;53.97
60465;BME280;46314;52.392;9.758;2024-03-02T12:05:49;99735.94;;;14.45;55.14
60465;BME280;46314;52.392;9.758;2024-03-02T12:08:16;99733.75;;;15.03;52.84
60465;BME280;46314;52.392;9.758;2024-03-02T12:10:42;99730.22;;;15.19;53.83
60465;BME280;46314;52.392;9.758;2024-03-02T12:13:10;99728.88;;;15.73;51.77
60465;BME280;46314;52.392;9.758;2024-03-02T12:15:38;99719.75;;;14.75;54.40
60465;BME280;46314;52.392;9.758;2024-03-02T12:18:06;99724.50;;;15.43;52.91
60465;BME280;46314;52.392;9.758;2024-03-02T12:20:33;99715.91;;;14.80;54.26
60465;BME280;46314;52.392;9.758;2024-03-02T12:23:01;99719.13;;;14.94;53.88
60465;BME280;46314;52.392;9.758;2024-03-02T12:25:29;99713.03;;;14.76;54.02
60465;BME280;46314;52.392;9.758;2024-03-02T12:27:59;99711.19;;;14.43;55.77
60465;BME280;46314;52.392;9.758;2024-03-02T12:30:27;99711.31;;;15.00;54.52
60465;BME280;46314;52.392;9.758;2024-03-02T12:32:55;99703.03;;;14.50;55.30
60465;BME280;46314;52.392;9.758;2024-03-02T12:35:24;99706.91;;;14.21;55.81
60465;BME280;46314;52.392;9.758;2024-03-02T12:37:52;99700.00;;;14.55;54.44
60465;BME280;46314;52.392;9.758;2024-03-02T12:40:20;99702.31;;;14.78;53.47
60465;BME280;46314;52.392;9.758;2024-03-02T12:42:47;99703.03;;;14.63;54.20
60465;BME280;46314;52.392;9.758;2024-03-02T12:45:13;99697.59;;;13.68;56.23
60465;BME280;46314;52.392;9.758;2024-03-02T12:47:41;99701.03;;;14.75;53.78
60465;BME280;46314;52.392;9.758;2024-03-02T12:50:09;99708.31;;;14.15;54.44
60465;BME280;46314;52.392;9.758;2024-03-02T12:52:37;99693.06;;;13.88;54.98
60465;BME280;46314;52.392;9.758;2024-03-02T12:55:05;99686.56;;;13.83;54.45
60465;BME280;46314;52.392;9.758;2024-03-02T12:57:32;99683.19;;;14.39;52.78
60465;BME280;46314;52.392;9.758;2024-03-02T13:00:00;99685.09;;;13.98;53.91
60465;BME280;46314;52.392;9.758;2024-03-02T13:02:30;99685.38;;;14.46;53.16